createdAt,value
2019-03-21T00:01:02.253Z,11.12
2019-03-21T00:03:32.847Z,11.11
2019-03-21T00:06:04.396Z,11.10
2019-03-21T00:08:35.243Z,11.16
2019-03-21T00:11:48.260Z,11.01
2019-03-21T00:14:45.591Z,11.01
2019-03-21T00:17:17.347Z,10.96
2019-03-21T00:19:47.963Z,10.89
2019-03-21T00:22:18.646Z,10.81
2019-03-21T00:24:49.219Z,10.88
2019-03-21T00:27:19.921Z,10.89
2019-03-21T00:29:50.505Z,10.80
2019-03-21T00:32:21.131Z,10.84
2019-03-21T00:34:51.799Z,10.78
2019-03-21T00:37:22.405Z,10.91
2019-03-21T00:39:53.081Z,10.98
2019-03-21T00:42:23.710Z,11.05
2019-03-21T00:44:54.343Z,11.01
2019-03-21T00:47:24.990Z,10.99
2019-03-21T00:49:55.685Z,10.90
2019-03-21T00:52:26.365Z,11.07
2019-03-21T00:54:57.238Z,11.00
2019-03-21T00:57:28.026Z,11.05
2019-03-21T01:00:00.398Z,11.00
2019-03-21T01:02:31.087Z,11.08
2019-03-21T01:05:01.754Z,11.08
2019-03-21T01:07:32.472Z,11.07
2019-03-21T01:10:03.215Z,10.97
2019-03-21T01:12:33.990Z,11.02
2019-03-21T01:15:04.640Z,10.98
2019-03-21T01:17:35.706Z,10.95
2019-03-21T01:20:07.864Z,11.05
2019-03-21T01:22:38.533Z,11.08
2019-03-21T01:25:11.509Z,11.01
2019-03-21T01:27:42.215Z,11.08
2019-03-21T01:30:14.264Z,11.05
2019-03-21T01:32:45.002Z,11.17
2019-03-21T01:35:16.282Z,11.18
2019-03-21T01:37:46.936Z,11.17
2019-03-21T01:40:20.210Z,11.28
2019-03-21T01:42:50.782Z,11.07
2019-03-21T01:45:22.724Z,11.12
2019-03-21T01:47:53.972Z,11.12
2019-03-21T01:50:24.902Z,11.20
2019-03-21T01:52:55.576Z,11.05
2019-03-21T01:55:26.252Z,11.11
2019-03-21T01:57:56.949Z,11.11
2019-03-21T02:00:30.388Z,11.27
2019-03-21T02:03:01.070Z,11.19
2019-03-21T02:05:32.002Z,11.11
2019-03-21T02:08:02.719Z,11.07
2019-03-21T02:10:33.354Z,11.05
2019-03-21T02:13:03.946Z,11.11
2019-03-21T02:15:34.664Z,11.23
2019-03-21T02:18:05.461Z,11.22
2019-03-21T02:20:36.132Z,11.15
2019-03-21T02:23:06.886Z,11.23
2019-03-21T02:25:37.574Z,11.17
2019-03-21T02:28:08.302Z,11.22
2019-03-21T02:30:38.882Z,11.09
2019-03-21T02:33:16.123Z,11.23
2019-03-21T02:35:46.747Z,11.16
2019-03-21T02:38:17.347Z,11.14
2019-03-21T02:40:47.966Z,11.10
2019-03-21T02:43:18.543Z,11.06
2019-03-21T02:45:49.377Z,11.17
2019-03-21T02:48:19.939Z,11.11
2019-03-21T02:50:50.621Z,11.19
2019-03-21T02:53:21.213Z,11.16
2019-03-21T02:55:51.902Z,11.21
2019-03-21T02:58:22.574Z,11.21
2019-03-21T03:00:53.160Z,11.11
2019-03-21T03:03:23.799Z,11.10
2019-03-21T03:05:54.460Z,11.11
2019-03-21T03:08:25.105Z,11.08
2019-03-21T03:10:55.930Z,11.19
2019-03-21T03:13:26.555Z,11.17
2019-03-21T03:15:57.134Z,11.14
2019-03-21T03:18:27.729Z,11.06
2019-03-21T03:20:58.325Z,11.14
2019-03-21T03:23:29.034Z,11.08
2019-03-21T03:25:59.652Z,11.12
2019-03-21T03:28:30.304Z,11.04
2019-03-21T03:31:02.394Z,11.04
2019-03-21T03:33:32.974Z,11.15
2019-03-21T03:36:03.675Z,11.15
2019-03-21T03:38:34.294Z,11.05
2019-03-21T03:41:05.906Z,11.07
2019-03-21T03:43:36.497Z,11.08
2019-03-21T03:46:07.109Z,11.00
2019-03-21T03:48:37.683Z,11.05
2019-03-21T03:51:08.273Z,11.06
2019-03-21T03:53:42.272Z,11.09
2019-03-21T03:56:11.146Z,11.15
2019-03-21T03:58:42.981Z,11.16
2019-03-21T04:01:13.794Z,11.17
2019-03-21T04:03:44.481Z,11.11
2019-03-21T04:06:15.169Z,11.04
2019-03-21T04:08:45.812Z,11.10
2019-03-21T04:11:16.390Z,11.09
2019-03-21T04:13:46.987Z,11.19
2019-03-21T04:16:17.593Z,11.20
2019-03-21T04:18:48.215Z,11.13
2019-03-21T04:21:18.833Z,11.19
2019-03-21T04:23:49.438Z,11.10
2019-03-21T04:26:26.335Z,11.15
2019-03-21T04:28:56.875Z,11.25
2019-03-21T04:31:27.453Z,11.22
2019-03-21T04:33:59.911Z,11.23
2019-03-21T04:36:30.500Z,11.13
2019-03-21T04:39:01.900Z,11.13
2019-03-21T04:41:32.462Z,11.23
2019-03-21T04:44:03.146Z,11.21
2019-03-21T04:46:33.720Z,11.18
2019-03-21T04:49:04.462Z,11.06
2019-03-21T04:51:35.106Z,11.11
2019-03-21T04:54:05.772Z,11.17
2019-03-21T04:56:36.329Z,11.18
2019-03-21T04:59:06.993Z,11.12
2019-03-21T05:01:37.543Z,11.25
2019-03-21T05:04:08.151Z,11.24
2019-03-21T05:06:38.744Z,11.12
2019-03-21T05:09:12.829Z,11.16
2019-03-21T05:11:43.412Z,11.13
2019-03-21T05:14:14.113Z,11.17
2019-03-21T05:16:44.709Z,11.15
2019-03-21T05:19:15.607Z,11.12
2019-03-21T05:21:46.807Z,11.18
2019-03-21T05:24:17.436Z,11.03
2019-03-21T05:26:48.041Z,11.07
2019-03-21T05:29:18.646Z,11.06
2019-03-21T05:31:49.259Z,10.86
2019-03-21T05:34:19.941Z,11.00
2019-03-21T05:36:50.651Z,10.98
2019-03-21T05:39:21.301Z,10.91
2019-03-21T05:41:51.873Z,10.98
2019-03-21T05:44:32.478Z,10.99
2019-03-21T05:47:03.074Z,10.95
2019-03-21T05:49:33.713Z,10.92
2019-03-21T05:52:04.303Z,10.91
2019-03-21T05:54:34.905Z,10.97
2019-03-21T05:57:05.491Z,10.98
2019-03-21T05:59:36.125Z,11.10
2019-03-21T06:02:06.734Z,11.12
2019-03-21T06:04:37.478Z,11.24
2019-03-21T06:07:38.439Z,11.22
2019-03-21T06:10:12.885Z,11.13
2019-03-21T06:12:46.609Z,11.19
2019-03-21T06:15:20.509Z,11.16
2019-03-21T06:18:19.982Z,11.21
2019-03-21T06:21:02.666Z,11.21
2019-03-21T06:23:58.147Z,11.05
2019-03-21T06:26:36.710Z,11.23
2019-03-21T06:29:07.353Z,11.21
2019-03-21T06:31:37.916Z,11.33
2019-03-21T06:34:08.511Z,11.10
2019-03-21T06:36:39.097Z,11.21
2019-03-21T06:39:10.176Z,11.24
2019-03-21T06:41:40.776Z,11.24
2019-03-21T06:44:11.374Z,11.24
2019-03-21T06:46:49.482Z,11.34
2019-03-21T06:49:14.304Z,11.30
2019-03-21T06:51:44.995Z,11.20
2019-03-21T06:54:15.622Z,11.44
2019-03-21T06:56:46.194Z,11.50
2019-03-21T06:59:16.820Z,11.54
2019-03-21T07:01:47.561Z,11.52
2019-03-21T07:04:18.245Z,11.44
2019-03-21T07:06:48.938Z,11.40
2019-03-21T07:09:19.619Z,11.50
2019-03-21T07:11:50.261Z,11.54
2019-03-21T07:14:20.976Z,11.53
2019-03-21T07:17:00.085Z,11.63
2019-03-21T07:19:23.853Z,11.59
2019-03-21T07:21:54.446Z,11.58
2019-03-21T07:24:25.128Z,11.52
2019-03-21T07:26:55.714Z,11.54
2019-03-21T07:29:26.320Z,11.59
2019-03-21T07:31:56.902Z,11.69
2019-03-21T07:34:27.526Z,11.64
2019-03-21T07:36:58.241Z,11.71
2019-03-21T07:39:28.933Z,11.60
2019-03-21T07:42:01.185Z,11.60
2019-03-21T07:44:31.758Z,11.60
2019-03-21T07:47:12.196Z,11.57
2019-03-21T07:49:34.766Z,11.54
2019-03-21T07:52:05.387Z,11.57
2019-03-21T07:54:35.986Z,11.64
2019-03-21T07:57:06.594Z,11.64
2019-03-21T07:59:37.196Z,11.62
2019-03-21T08:02:07.816Z,11.76
2019-03-21T08:04:38.423Z,11.70
2019-03-21T08:07:09.045Z,11.69
2019-03-21T08:09:39.750Z,11.63
2019-03-21T08:12:10.476Z,11.66
2019-03-21T08:14:41.116Z,11.64
2019-03-21T08:17:11.724Z,11.80
2019-03-21T08:19:42.288Z,11.82
2019-03-21T08:22:12.946Z,11.86
2019-03-21T08:24:43.557Z,11.85
2019-03-21T08:27:14.160Z,11.88
2019-03-21T08:29:44.746Z,11.90
2019-03-21T08:32:15.389Z,12.02
2019-03-21T08:34:46.036Z,11.88
2019-03-21T08:37:16.642Z,11.80
2019-03-21T08:39:47.223Z,11.80
2019-03-21T08:42:17.822Z,11.85
2019-03-21T08:44:48.489Z,11.70
2019-03-21T08:47:19.062Z,11.90
2019-03-21T08:49:49.725Z,11.92
2019-03-21T08:52:20.467Z,11.82
2019-03-21T08:54:51.044Z,11.99
2019-03-21T08:57:21.762Z,12.02
2019-03-21T08:59:52.467Z,11.97
2019-03-21T09:02:23.091Z,12.03
2019-03-21T09:04:53.696Z,12.01
2019-03-21T09:07:24.362Z,12.01
2019-03-21T09:09:55.000Z,12.07
2019-03-21T09:12:25.676Z,12.01
2019-03-21T09:14:56.247Z,12.01
2019-03-21T09:17:26.827Z,12.01
2019-03-21T09:19:58.347Z,11.93
2019-03-21T09:22:28.983Z,11.93
2019-03-21T09:24:59.573Z,12.08
2019-03-21T09:27:30.275Z,12.04
2019-03-21T09:30:00.907Z,12.21
2019-03-21T09:32:31.557Z,12.13
2019-03-21T09:35:02.152Z,12.18
2019-03-21T09:37:32.751Z,12.03
2019-03-21T09:40:03.309Z,12.11
2019-03-21T09:42:33.904Z,12.11
2019-03-21T09:45:05.147Z,12.11
2019-03-21T09:47:35.847Z,12.11
2019-03-21T09:50:07.297Z,12.17
2019-03-21T09:52:38.661Z,12.30
2019-03-21T09:55:10.958Z,12.07
2019-03-21T09:57:43.253Z,12.15
2019-03-21T10:00:18.638Z,12.23
2019-03-21T10:02:50.965Z,12.34
2019-03-21T10:05:39.529Z,12.45
2019-03-21T10:08:11.859Z,12.30
2019-03-21T10:10:44.165Z,12.30
2019-03-21T10:13:32.583Z,12.21
2019-03-21T10:16:21.517Z,12.26
2019-03-21T10:19:10.257Z,12.22
2019-03-21T10:21:58.875Z,12.22
2019-03-21T10:24:46.135Z,12.21
2019-03-21T10:27:15.965Z,12.40
2019-03-21T10:29:46.645Z,12.33
2019-03-21T10:32:17.261Z,12.32
2019-03-21T10:34:47.963Z,12.32
2019-03-21T10:37:18.591Z,12.34
2019-03-21T10:39:49.199Z,12.23
2019-03-21T10:42:19.841Z,12.30
2019-03-21T10:44:50.447Z,12.42
2019-03-21T10:47:21.503Z,12.58
2019-03-21T10:49:52.116Z,12.36
2019-03-21T10:52:22.703Z,12.36
2019-03-21T10:54:53.306Z,12.31
2019-03-21T10:57:23.932Z,12.39
2019-03-21T10:59:54.560Z,12.45
2019-03-21T11:02:25.117Z,12.57
2019-03-21T11:04:55.773Z,12.49
2019-03-21T11:07:24.213Z,12.52
2019-03-21T11:09:54.871Z,12.61
2019-03-21T11:12:25.462Z,12.51
2019-03-21T11:14:56.092Z,12.51
2019-03-21T11:17:26.688Z,12.64
2019-03-21T11:19:57.303Z,12.72
2019-03-21T11:22:27.863Z,12.80
2019-03-21T11:24:58.457Z,12.71
2019-03-21T11:27:29.073Z,12.84
2019-03-21T11:29:59.701Z,12.84
2019-03-21T11:32:30.273Z,12.99
2019-03-21T11:35:00.929Z,13.10
2019-03-21T11:37:31.479Z,12.98
2019-03-21T11:40:02.096Z,13.07
2019-03-21T11:42:32.685Z,13.02
2019-03-21T11:45:03.331Z,13.01
2019-03-21T11:47:41.796Z,13.10
2019-03-21T11:50:06.564Z,13.22
2019-03-21T11:52:37.138Z,13.14
2019-03-21T11:55:08.062Z,13.25
2019-03-21T11:57:38.614Z,13.25
2019-03-21T12:00:09.840Z,13.34
2019-03-21T12:02:40.410Z,13.30
2019-03-21T12:05:11.164Z,13.44
2019-03-21T12:07:41.728Z,13.18
2019-03-21T12:10:12.542Z,13.33
2019-03-21T12:12:43.295Z,13.44
2019-03-21T12:15:14.012Z,13.35
2019-03-21T12:17:44.614Z,13.51
2019-03-21T12:20:17.839Z,13.45
2019-03-21T12:22:48.385Z,13.49
2019-03-21T12:25:19.006Z,13.48
2019-03-21T12:27:49.577Z,13.49
2019-03-21T12:30:29.084Z,13.50
2019-03-21T12:32:58.932Z,13.53
2019-03-21T12:35:29.552Z,13.61
2019-03-21T12:38:00.144Z,13.52
2019-03-21T12:40:30.835Z,13.67
2019-03-21T12:43:01.400Z,13.70
2019-03-21T12:45:32.014Z,13.39
2019-03-21T12:48:02.604Z,13.57
2019-03-21T12:50:33.319Z,13.74
2019-03-21T12:53:03.985Z,13.72
2019-03-21T12:55:34.614Z,13.79
2019-03-21T12:58:05.211Z,13.89
2019-03-21T13:00:40.428Z,13.89
2019-03-21T13:03:10.972Z,13.80
2019-03-21T13:05:41.612Z,13.78
2019-03-21T13:08:12.182Z,13.81
2019-03-21T13:10:43.191Z,13.89
2019-03-21T13:13:13.842Z,13.78
2019-03-21T13:15:44.434Z,13.98
2019-03-21T13:18:15.044Z,14.10
2019-03-21T13:20:46.106Z,14.17
2019-03-21T13:23:16.802Z,14.04
2019-03-21T13:25:47.528Z,14.11
2019-03-21T13:28:18.123Z,14.14
2019-03-21T13:30:48.700Z,14.09
2019-03-21T13:33:19.332Z,14.20
2019-03-21T13:35:50.172Z,14.02
2019-03-21T13:38:20.830Z,14.05
2019-03-21T13:40:51.528Z,13.94
2019-03-21T13:43:22.823Z,13.88
2019-03-21T13:45:53.481Z,14.04
2019-03-21T13:48:24.100Z,14.14
2019-03-21T13:50:54.700Z,14.24
2019-03-21T13:53:25.337Z,14.06
2019-03-21T13:55:55.925Z,14.04
2019-03-21T13:58:27.027Z,14.11
2019-03-21T14:00:57.639Z,14.03
2019-03-21T14:03:28.324Z,14.02
2019-03-21T14:05:59.067Z,14.07
2019-03-21T14:08:29.777Z,14.06
2019-03-21T14:11:00.381Z,14.14
2019-03-21T14:13:31.000Z,14.18
2019-03-21T14:16:01.567Z,14.28
2019-03-21T14:18:32.241Z,14.17
2019-03-21T14:21:02.820Z,14.08
2019-03-21T14:23:42.740Z,14.08
2019-03-21T14:26:05.892Z,14.10
2019-03-21T14:28:36.489Z,14.15
2019-03-21T14:31:07.409Z,14.30
2019-03-21T14:33:38.137Z,14.21
2019-03-21T14:36:08.737Z,14.22
2019-03-21T14:38:39.343Z,14.20
2019-03-21T14:41:10.020Z,14.24
2019-03-21T14:43:42.342Z,14.15
2019-03-21T14:46:13.046Z,14.14
2019-03-21T14:48:44.033Z,14.16
2019-03-21T14:51:14.863Z,14.18
2019-03-21T14:53:45.566Z,14.17
2019-03-21T14:56:16.211Z,14.23
2019-03-21T14:58:46.915Z,14.09
2019-03-21T15:01:17.609Z,14.19
2019-03-21T15:03:48.436Z,14.21
2019-03-21T15:06:19.001Z,13.97
2019-03-21T15:08:49.615Z,14.00
2019-03-21T15:11:20.160Z,14.15
2019-03-21T15:13:50.760Z,14.20
2019-03-21T15:16:21.451Z,14.25
2019-03-21T15:18:55.117Z,14.17
2019-03-21T15:21:25.687Z,14.29
2019-03-21T15:23:59.733Z,14.33
2019-03-21T15:26:28.723Z,14.39
2019-03-21T15:29:17.392Z,14.35
2019-03-21T15:32:05.830Z,14.32
2019-03-21T15:34:37.547Z,14.18
2019-03-21T15:37:08.141Z,14.04
2019-03-21T15:39:39.145Z,14.09
2019-03-21T15:42:09.801Z,14.25
2019-03-21T15:44:39.619Z,14.23
2019-03-21T15:47:10.269Z,14.38
2019-03-21T15:49:40.902Z,14.38
2019-03-21T15:52:11.500Z,14.29
2019-03-21T15:54:42.099Z,14.47
2019-03-21T15:57:12.685Z,14.35
2019-03-21T15:59:43.340Z,14.30
2019-03-21T16:02:13.935Z,14.34
2019-03-21T16:04:44.581Z,14.34
2019-03-21T16:07:15.169Z,14.16
2019-03-21T16:09:45.749Z,14.20
2019-03-21T16:12:16.439Z,14.26
2019-03-21T16:14:49.199Z,14.28
2019-03-21T16:17:19.369Z,14.27
2019-03-21T16:19:49.984Z,14.12
2019-03-21T16:22:20.585Z,14.21
2019-03-21T16:24:51.213Z,14.33
2019-03-21T16:27:21.837Z,14.31
2019-03-21T16:29:52.391Z,14.33
2019-03-21T16:32:22.983Z,14.31
2019-03-21T16:34:53.591Z,14.39
2019-03-21T16:37:24.268Z,14.42
2019-03-21T16:39:54.833Z,14.32
2019-03-21T16:42:25.448Z,14.26
2019-03-21T16:44:56.023Z,14.16
2019-03-21T16:47:26.639Z,14.18
2019-03-21T16:49:57.311Z,14.19
2019-03-21T16:52:28.000Z,14.21
2019-03-21T16:54:58.568Z,14.21
2019-03-21T16:57:29.214Z,14.08
2019-03-21T16:59:59.867Z,14.18
2019-03-21T17:02:30.550Z,14.14
2019-03-21T17:05:01.169Z,14.23
2019-03-21T17:07:31.811Z,14.12
2019-03-21T17:10:02.403Z,14.18
2019-03-21T17:12:33.032Z,14.16
2019-03-21T17:15:03.604Z,14.01
2019-03-21T17:17:34.291Z,13.88
2019-03-21T17:20:05.478Z,13.96
2019-03-21T17:22:36.071Z,13.88
2019-03-21T17:25:07.353Z,13.90
2019-03-21T17:27:38.543Z,13.79
2019-03-21T17:30:09.276Z,14.01
2019-03-21T17:32:39.864Z,14.10
2019-03-21T17:35:10.581Z,13.86
2019-03-21T17:37:41.203Z,14.02
2019-03-21T17:40:11.945Z,13.77
2019-03-21T17:42:42.618Z,13.85
2019-03-21T17:45:14.695Z,13.82
2019-03-21T17:47:45.316Z,13.95
2019-03-21T17:50:16.722Z,13.86
2019-03-21T17:52:47.339Z,13.87
2019-03-21T17:55:17.954Z,13.98
2019-03-21T17:57:48.628Z,13.88
2019-03-21T18:00:21.211Z,14.07
2019-03-21T18:02:51.938Z,13.92
2019-03-21T18:05:22.547Z,13.83
2019-03-21T18:07:53.226Z,13.72
2019-03-21T18:10:28.748Z,13.93
2019-03-21T18:12:59.385Z,14.01
2019-03-21T18:15:30.235Z,13.95
2019-03-21T18:18:02.731Z,13.95
2019-03-21T18:20:33.319Z,13.92
2019-03-21T18:23:03.963Z,13.89
2019-03-21T18:25:34.550Z,14.03
2019-03-21T18:28:05.145Z,13.85
2019-03-21T18:30:35.734Z,13.69
2019-03-21T18:33:06.429Z,13.72
2019-03-21T18:35:37.037Z,13.71
2019-03-21T18:38:07.657Z,13.64
2019-03-21T18:40:38.246Z,13.87
2019-03-21T18:43:08.849Z,13.81
2019-03-21T18:45:39.440Z,13.74
2019-03-21T18:48:10.050Z,13.59
2019-03-21T18:50:40.635Z,13.74
2019-03-21T18:53:11.322Z,13.91
2019-03-21T18:55:41.898Z,13.86
2019-03-21T18:58:12.531Z,13.94
2019-03-21T19:00:43.401Z,13.90
2019-03-21T19:03:13.996Z,13.90
2019-03-21T19:05:44.650Z,13.73
2019-03-21T19:08:15.238Z,13.79
2019-03-21T19:10:45.829Z,13.67
2019-03-21T19:13:16.460Z,13.65
2019-03-21T19:15:47.080Z,13.68
2019-03-21T19:18:17.633Z,13.61
2019-03-21T19:20:48.277Z,13.70
2019-03-21T19:23:18.870Z,13.84
2019-03-21T19:25:49.434Z,13.78
2019-03-21T19:28:20.013Z,13.79
2019-03-21T19:30:50.600Z,13.64
2019-03-21T19:33:21.192Z,13.66
2019-03-21T19:35:51.799Z,13.68
2019-03-21T19:38:23.863Z,13.70
2019-03-21T19:40:54.653Z,13.70
2019-03-21T19:43:25.428Z,13.56
2019-03-21T19:45:56.130Z,13.58
2019-03-21T19:48:26.713Z,13.58
2019-03-21T19:50:57.329Z,13.39
2019-03-21T19:53:29.019Z,13.59
2019-03-21T19:56:08.341Z,13.47
2019-03-21T19:58:32.043Z,13.44
2019-03-21T20:01:02.881Z,13.53
2019-03-21T20:03:33.449Z,13.53
2019-03-21T20:06:04.110Z,13.38
2019-03-21T20:08:34.689Z,13.45
2019-03-21T20:11:05.295Z,13.56
2019-03-21T20:13:35.878Z,13.47
2019-03-21T20:16:06.525Z,13.43
2019-03-21T20:18:37.121Z,13.40
2019-03-21T20:21:07.730Z,13.61
2019-03-21T20:23:38.311Z,13.60
2019-03-21T20:26:08.943Z,13.63
2019-03-21T20:28:39.547Z,13.64
2019-03-21T20:31:10.211Z,13.60
2019-03-21T20:33:40.803Z,13.47
2019-03-21T20:36:11.397Z,13.46
2019-03-21T20:38:42.009Z,13.29
2019-03-21T20:41:12.658Z,13.38
2019-03-21T20:43:43.233Z,13.34
2019-03-21T20:46:13.871Z,13.35
2019-03-21T20:48:42.307Z,13.42
2019-03-21T20:51:13.276Z,13.25
2019-03-21T20:53:43.919Z,13.36
2019-03-21T20:56:14.560Z,13.14
2019-03-21T20:58:45.187Z,13.42
2019-03-21T21:01:15.813Z,13.38
2019-03-21T21:03:46.429Z,13.43
2019-03-21T21:06:17.093Z,13.45
2019-03-21T21:08:47.801Z,13.32
2019-03-21T21:11:18.420Z,13.40
2019-03-21T21:13:49.058Z,13.42
2019-03-21T21:16:19.749Z,13.42
2019-03-21T21:18:50.314Z,13.44
2019-03-21T21:21:20.936Z,13.18
2019-03-21T21:23:51.611Z,13.38
2019-03-21T21:26:22.257Z,13.28
2019-03-21T21:28:52.857Z,13.11
2019-03-21T21:31:23.458Z,13.19
2019-03-21T21:33:54.099Z,13.33
2019-03-21T21:36:24.739Z,13.24
2019-03-21T21:38:55.412Z,13.17
2019-03-21T21:41:26.059Z,13.21
2019-03-21T21:43:56.741Z,13.01
2019-03-21T21:46:27.307Z,13.05
2019-03-21T21:48:57.940Z,12.96
2019-03-21T21:51:28.539Z,13.10
2019-03-21T21:53:59.158Z,13.24
2019-03-21T21:56:29.711Z,13.01
2019-03-21T21:59:00.293Z,12.96
2019-03-21T22:01:30.955Z,13.21
2019-03-21T22:04:04.859Z,13.11
2019-03-21T22:06:34.995Z,12.94
2019-03-21T22:09:08.019Z,13.05
2019-03-21T22:11:38.601Z,12.84
2019-03-21T22:14:09.251Z,13.04
2019-03-21T22:16:39.860Z,13.05
2019-03-21T22:19:10.517Z,12.98
2019-03-21T22:21:41.117Z,13.07
2019-03-21T22:24:11.750Z,13.18
2019-03-21T22:26:42.413Z,13.04
2019-03-21T22:29:13.035Z,12.74
2019-03-21T22:31:43.638Z,13.01
2019-03-21T22:34:14.347Z,13.07
2019-03-21T22:36:49.552Z,13.12
2019-03-21T22:39:17.285Z,13.02
2019-03-21T22:41:47.910Z,12.98
2019-03-21T22:44:18.546Z,13.12
2019-03-21T22:46:49.110Z,12.81
2019-03-21T22:49:19.783Z,12.90
2019-03-21T22:51:50.390Z,12.83
2019-03-21T22:54:21.096Z,12.82
2019-03-21T22:56:51.704Z,12.74
2019-03-21T22:59:22.415Z,12.83
2019-03-21T23:01:56.111Z,12.99
2019-03-21T23:04:26.773Z,12.97
2019-03-21T23:06:57.386Z,12.96
2019-03-21T23:09:28.009Z,12.94
2019-03-21T23:11:58.641Z,12.95
2019-03-21T23:14:29.367Z,12.75
2019-03-21T23:16:59.939Z,12.75
2019-03-21T23:19:30.575Z,12.83
2019-03-21T23:22:01.209Z,12.83
2019-03-21T23:24:31.806Z,12.62
2019-03-21T23:27:02.438Z,12.67
2019-03-21T23:29:33.048Z,12.81
2019-03-21T23:32:03.622Z,12.78
2019-03-21T23:34:34.303Z,12.78
2019-03-21T23:37:04.966Z,12.78
2019-03-21T23:39:35.712Z,12.72
2019-03-21T23:42:06.383Z,12.71
2019-03-21T23:44:37.047Z,12.84
2019-03-21T23:47:07.734Z,12.85
2019-03-21T23:49:38.378Z,12.89
2019-03-21T23:52:08.984Z,12.91
2019-03-21T23:54:39.587Z,12.90
2019-03-21T23:57:10.186Z,12.88
2019-03-21T23:59:40.826Z,12.80
